createdAt,value
2022-12-20T14:20:58.602Z,88754.00
2022-12-20T14:21:58.546Z,88737.00
2022-12-20T14:25:03.769Z,88735.00
2022-12-20T14:26:03.725Z,88746.00
2022-12-20T14:27:03.665Z,88748.00
2022-12-20T14:28:03.620Z,88729.00
2022-12-20T14:29:03.506Z,88752.00
2022-12-20T14:30:03.436Z,88737.00
2022-12-20T14:31:03.445Z,88744.00
2022-12-20T14:32:03.260Z,88748.00
2022-12-20T14:33:03.164Z,88735.00
2022-12-20T14:34:03.072Z,88746.00
2022-12-20T14:35:02.985Z,88731.00
2022-12-20T14:36:02.889Z,88733.00
2022-12-20T14:37:02.793Z,88723.00
2022-12-20T14:38:02.701Z,88731.00
2022-12-20T14:39:02.573Z,88733.00
2022-12-20T14:40:02.459Z,88729.00
2022-12-20T14:41:02.378Z,88727.00
2022-12-20T14:42:02.272Z,88737.00
2022-12-20T14:43:02.160Z,88737.00
2022-12-20T14:44:02.086Z,88750.00
2022-12-20T14:45:01.951Z,88748.00
2022-12-20T14:46:01.886Z,88752.00
2022-12-20T14:47:01.863Z,88758.00
2022-12-20T14:48:01.665Z,88760.00
2022-12-20T14:49:01.575Z,88758.00
2022-12-20T14:50:01.470Z,88750.00
2022-12-20T14:51:01.350Z,88754.00
2022-12-20T14:52:01.243Z,88744.00
2022-12-20T14:53:01.134Z,88748.00
2022-12-20T14:54:01.042Z,88748.00
2022-12-20T14:55:10.035Z,88748.00
2022-12-20T14:56:01.823Z,88756.00
2022-12-20T14:57:00.741Z,88744.00
2022-12-20T14:58:00.648Z,88735.00
2022-12-20T14:59:00.538Z,88729.00
2022-12-20T15:00:00.418Z,88733.00
2022-12-20T15:01:00.311Z,88737.00
2022-12-20T15:02:00.301Z,88756.00
2022-12-20T15:03:00.573Z,88735.00
2022-12-20T15:04:00.148Z,88750.00
2022-12-20T15:04:59.915Z,88744.00
2022-12-20T15:05:59.792Z,88746.00
2022-12-20T15:06:59.669Z,88744.00
2022-12-20T15:07:59.594Z,88752.00
2022-12-20T15:08:59.478Z,88750.00
2022-12-20T15:09:59.399Z,88735.00
2022-12-20T15:10:59.268Z,88750.00
2022-12-20T15:11:59.155Z,88754.00
2022-12-20T15:12:59.052Z,88748.00
2022-12-20T15:13:58.974Z,88756.00
2022-12-20T15:15:17.687Z,88762.00
2022-12-20T15:15:58.842Z,88737.00
2022-12-20T15:16:58.654Z,88754.00
2022-12-20T15:17:58.542Z,88746.00
2022-12-20T15:18:58.456Z,88744.00
2022-12-20T15:19:58.367Z,88746.00
2022-12-20T15:20:58.251Z,88754.00
2022-12-20T15:21:58.146Z,88735.00
2022-12-20T15:22:58.081Z,88717.00
2022-12-20T15:23:57.941Z,88727.00
2022-12-20T15:24:57.896Z,88733.00
2022-12-20T15:25:57.756Z,88725.00
2022-12-20T15:26:57.643Z,88721.00
2022-12-20T15:27:57.568Z,88725.00
2022-12-20T15:28:57.437Z,88729.00
2022-12-20T15:29:57.351Z,88721.00
2022-12-20T15:30:57.307Z,88721.00
2022-12-20T15:31:57.241Z,88727.00
2022-12-20T15:32:57.033Z,88721.00
2022-12-20T15:33:56.939Z,88725.00
2022-12-20T15:34:56.857Z,88717.00
2022-12-20T15:35:56.800Z,88727.00
2022-12-20T15:36:56.647Z,88719.00
2022-12-20T15:37:56.508Z,88723.00
2022-12-20T15:39:12.718Z,88715.00
2022-12-20T15:39:57.306Z,88714.00
2022-12-20T15:44:55.736Z,88721.00
2022-12-20T15:45:55.639Z,88717.00
2022-12-20T15:46:55.626Z,88725.00
2022-12-20T15:47:55.444Z,88719.00
2022-12-20T15:48:55.346Z,88715.00
2022-12-20T15:49:55.239Z,88717.00
2022-12-20T15:50:55.124Z,88727.00
2022-12-20T15:51:55.027Z,88721.00
2022-12-20T15:52:54.918Z,88704.00
2022-12-20T15:53:54.802Z,88712.00
2022-12-20T15:54:54.698Z,88708.00
2022-12-20T15:55:54.616Z,88702.00
2022-12-20T15:56:54.501Z,88708.00
2022-12-20T15:57:54.372Z,88712.00
2022-12-20T15:58:54.290Z,88706.00
2022-12-20T16:00:02.955Z,88714.00
2022-12-20T16:00:55.093Z,88712.00
2022-12-20T16:01:54.053Z,88704.00
2022-12-20T16:02:53.927Z,88712.00
2022-12-20T16:03:53.785Z,88714.00
2022-12-20T16:04:53.628Z,88714.00
2022-12-20T16:05:53.527Z,88715.00
2022-12-20T16:06:53.411Z,88715.00
2022-12-20T16:07:53.326Z,88717.00
2022-12-20T16:08:53.201Z,88708.00
2022-12-20T16:09:53.102Z,88714.00
2022-12-20T16:10:53.007Z,88704.00
2022-12-20T16:11:52.907Z,88698.00
2022-12-20T16:12:52.778Z,88702.00
2022-12-20T16:13:52.685Z,88708.00
2022-12-20T16:14:52.597Z,88708.00
2022-12-20T16:15:52.501Z,88708.00
2022-12-20T16:16:52.370Z,88704.00
2022-12-20T16:17:52.277Z,88706.00
2022-12-20T16:18:52.152Z,88708.00
2022-12-20T16:19:52.077Z,88702.00
2022-12-20T16:20:51.933Z,88698.00
2022-12-20T16:21:51.860Z,88704.00
2022-12-20T16:22:51.716Z,88698.00
2022-12-20T16:23:51.653Z,88704.00
2022-12-20T16:24:51.514Z,88698.00
2022-12-20T16:25:51.418Z,88708.00
2022-12-20T16:26:51.308Z,88708.00
2022-12-20T16:27:51.245Z,88704.00
2022-12-20T16:28:51.091Z,88702.00
2022-12-20T16:29:50.979Z,88696.00
2022-12-20T16:30:53.441Z,88700.00
2022-12-20T16:31:50.838Z,88700.00
2022-12-20T16:32:50.646Z,88698.00
2022-12-20T16:33:50.531Z,88698.00
2022-12-20T16:34:50.449Z,88702.00
2022-12-20T16:35:50.323Z,88698.00
2022-12-20T16:36:50.225Z,88702.00
2022-12-20T16:37:50.123Z,88706.00
2022-12-20T16:38:50.012Z,88706.00
2022-12-20T16:39:49.887Z,88710.00
2022-12-20T16:40:49.796Z,88706.00
2022-12-20T16:41:49.654Z,88714.00
2022-12-20T16:45:49.241Z,88700.00
2022-12-20T16:46:49.184Z,88696.00
2022-12-20T16:47:49.032Z,88706.00
2022-12-20T16:48:48.917Z,88710.00
2022-12-20T16:49:52.947Z,88694.00
2022-12-20T16:50:48.695Z,88702.00
2022-12-20T16:51:48.619Z,88700.00
2022-12-20T16:52:48.499Z,88704.00
2022-12-20T16:54:18.120Z,88696.00
2022-12-20T16:54:49.268Z,88704.00
2022-12-20T16:55:48.181Z,88696.00
2022-12-20T16:56:48.087Z,88702.00
2022-12-20T16:57:47.992Z,88696.00
2022-12-20T16:59:17.883Z,88698.00
2022-12-20T16:59:48.740Z,88694.00
2022-12-20T17:00:47.725Z,88698.00
2022-12-20T17:01:47.818Z,88696.00
2022-12-20T17:02:47.535Z,88688.00
2022-12-20T17:03:47.408Z,88688.00
2022-12-20T17:04:47.227Z,88682.00
2022-12-20T17:05:47.108Z,88682.00
2022-12-20T17:06:47.061Z,88692.00
2022-12-20T17:07:46.928Z,88690.00
2022-12-20T17:08:54.518Z,88698.00
2022-12-20T17:10:46.597Z,88702.00
2022-12-20T17:11:46.511Z,88692.00
2022-12-20T17:12:46.416Z,88698.00
2022-12-20T17:13:46.284Z,88694.00
2022-12-20T17:14:46.287Z,88696.00
2022-12-20T17:15:46.088Z,88696.00
2022-12-20T17:16:46.004Z,88698.00
2022-12-20T17:17:45.892Z,88696.00
2022-12-20T17:18:45.770Z,88702.00
2022-12-20T17:19:45.678Z,88692.00
2022-12-20T17:20:45.566Z,88702.00
2022-12-20T19:23:24.963Z,88653.00
2022-12-20T19:24:24.930Z,88657.00
2022-12-20T19:25:24.920Z,88664.00
2022-12-20T19:26:24.865Z,88659.00
2022-12-20T19:27:24.847Z,88657.00
2022-12-20T19:28:24.796Z,88657.00
2022-12-20T19:29:24.758Z,88657.00
2022-12-20T19:30:24.737Z,88659.00
2022-12-20T19:31:24.801Z,88660.00
2022-12-20T19:32:24.644Z,88657.00
2022-12-20T19:33:24.609Z,88651.00
2022-12-20T19:34:24.580Z,88641.00
2022-12-20T19:35:53.925Z,88635.00
2022-12-20T19:36:25.504Z,88635.00
2022-12-20T19:37:24.487Z,88639.00
2022-12-20T19:38:24.432Z,88639.00
2022-12-20T19:39:24.416Z,88635.00
2022-12-20T19:40:24.392Z,88629.00
2022-12-20T19:41:24.345Z,88619.00
2022-12-20T19:42:25.291Z,88629.00
2022-12-20T19:43:24.259Z,88619.00
2022-12-20T19:44:24.188Z,88633.00
2022-12-20T19:45:24.173Z,88629.00
2022-12-20T19:46:28.859Z,88631.00
2022-12-20T19:47:25.103Z,88631.00
2022-12-20T19:48:24.051Z,88633.00
2022-12-20T19:49:24.019Z,88627.00
2022-12-20T19:50:23.997Z,88631.00
2022-12-20T19:51:23.955Z,88629.00
2022-12-20T19:52:28.444Z,88623.00
2022-12-20T19:53:24.854Z,88633.00
2022-12-20T19:54:23.812Z,88623.00
2022-12-20T19:55:23.785Z,88627.00
2022-12-20T19:56:23.745Z,88619.00
2022-12-20T19:57:23.733Z,88625.00
2022-12-20T19:58:23.689Z,88606.00
2022-12-20T19:59:23.644Z,88608.00
2022-12-20T20:00:23.621Z,88602.00
2022-12-20T20:01:23.603Z,88604.00
2022-12-20T20:02:23.742Z,88606.00
2022-12-20T20:03:23.639Z,88606.00
2022-12-20T20:04:23.468Z,88602.00
2022-12-20T20:05:23.458Z,88619.00
2022-12-20T20:06:23.401Z,88621.00
2022-12-20T20:07:23.356Z,88604.00
2022-12-20T20:08:23.343Z,88619.00
2022-12-20T20:09:23.304Z,88627.00
2022-12-20T20:10:23.274Z,88629.00
2022-12-20T20:11:23.257Z,88625.00
2022-12-20T20:12:23.213Z,88623.00
2022-12-20T20:13:23.176Z,88637.00
2022-12-20T20:14:23.128Z,88629.00
2022-12-20T20:15:23.113Z,88612.00
2022-12-20T20:16:23.407Z,88619.00
2022-12-20T20:17:23.052Z,88629.00
2022-12-20T20:18:23.029Z,88617.00
2022-12-20T20:19:22.993Z,88635.00
2022-12-20T20:20:22.952Z,88637.00
2022-12-20T20:21:22.923Z,88619.00
2022-12-20T20:22:23.374Z,88635.00
2022-12-20T20:23:22.868Z,88633.00
2022-12-20T20:24:22.834Z,88641.00
2022-12-20T20:25:22.792Z,88637.00
2022-12-20T20:26:22.783Z,88627.00
2022-12-20T20:27:22.733Z,88635.00
2022-12-20T20:28:28.035Z,88641.00
2022-12-20T20:29:23.682Z,88623.00
2022-12-20T20:30:22.643Z,88637.00
2022-12-20T20:31:22.749Z,88627.00
2022-12-20T20:32:22.571Z,88629.00
2022-12-20T20:33:22.611Z,88627.00
2022-12-20T20:34:22.499Z,88629.00
2022-12-20T20:35:22.489Z,88625.00
2022-12-20T20:36:22.452Z,88627.00
2022-12-20T20:37:22.409Z,88627.00
2022-12-20T20:38:22.386Z,88625.00
2022-12-20T20:39:22.377Z,88627.00
2022-12-20T20:40:22.360Z,88625.00
2022-12-20T20:41:22.338Z,88627.00
2022-12-20T20:42:23.537Z,88627.00
2022-12-20T20:43:22.220Z,88625.00
2022-12-20T20:44:22.172Z,88631.00
2022-12-20T20:45:22.155Z,88617.00
2022-12-20T20:46:22.190Z,88623.00
2022-12-20T20:47:22.104Z,88631.00
2022-12-20T20:48:22.071Z,88633.00
2022-12-20T20:49:22.022Z,88631.00
2022-12-20T20:50:21.985Z,88623.00
2022-12-20T20:51:21.958Z,88627.00
2022-12-20T20:52:21.933Z,88617.00
2022-12-20T20:53:24.499Z,88621.00
2022-12-20T20:54:22.872Z,88617.00
2022-12-20T20:55:21.846Z,88623.00
2022-12-20T20:56:21.838Z,88617.00
2022-12-20T20:57:21.762Z,88615.00
2022-12-20T20:58:21.722Z,88619.00
2022-12-20T20:59:21.728Z,88612.00
2022-12-20T21:00:21.672Z,88608.00
2022-12-20T21:01:21.776Z,88610.00
2022-12-20T21:02:21.828Z,88606.00
2022-12-20T21:03:21.592Z,88612.00
2022-12-20T21:04:21.564Z,88600.00
2022-12-20T21:06:39.075Z,88602.00
2022-12-20T21:07:22.445Z,88600.00
2022-12-20T21:08:21.415Z,88610.00
2022-12-20T21:09:21.405Z,88606.00
2022-12-20T21:10:21.498Z,88604.00
2022-12-20T21:11:21.440Z,88615.00
2022-12-20T21:12:21.494Z,88619.00
2022-12-20T21:13:21.262Z,88615.00
2022-12-20T21:14:36.407Z,88623.00
2022-12-20T21:15:23.659Z,88621.00
2022-12-20T21:16:21.436Z,88621.00
2022-12-20T21:17:21.141Z,88619.00
2022-12-20T21:18:21.126Z,88617.00
2022-12-20T21:19:21.648Z,88617.00
2022-12-20T21:20:26.004Z,88612.00
2022-12-20T21:21:21.033Z,88625.00
2022-12-20T21:22:20.980Z,88619.00
2022-12-20T21:23:20.966Z,88610.00
2022-12-20T21:24:20.903Z,88617.00
2022-12-20T21:25:20.877Z,88623.00
2022-12-20T21:26:20.884Z,88621.00
2022-12-20T21:27:20.831Z,88621.00
2022-12-20T21:28:21.492Z,88610.00
2022-12-20T21:29:20.765Z,88619.00
2022-12-20T21:30:20.723Z,88612.00
2022-12-20T21:31:20.714Z,88613.00
2022-12-20T21:32:20.692Z,88613.00
2022-12-20T22:12:19.489Z,88580.00
2022-12-20T22:13:19.469Z,88574.00
2022-12-20T22:14:19.417Z,88570.00
2022-12-20T22:15:19.398Z,88572.00
2022-12-20T22:16:19.433Z,88574.00
2022-12-20T22:17:19.370Z,88576.00
2022-12-20T22:18:19.330Z,88576.00
2022-12-20T22:19:19.299Z,88572.00
2022-12-20T22:20:19.285Z,88574.00
2022-12-20T22:21:19.258Z,88572.00
2022-12-20T22:22:19.241Z,88580.00
2022-12-20T22:23:19.208Z,88570.00
2022-12-20T22:24:19.163Z,88566.00
2022-12-20T22:25:19.163Z,88564.00
2022-12-20T22:26:19.149Z,88582.00
2022-12-20T22:27:19.117Z,88560.00
2022-12-20T22:28:19.085Z,88568.00
2022-12-20T22:29:19.047Z,88570.00
2022-12-20T22:30:19.022Z,88558.00
2022-12-20T22:31:19.051Z,88545.00
2022-12-20T22:32:18.996Z,88560.00
2022-12-20T22:33:18.957Z,88564.00
2022-12-20T22:34:18.942Z,88568.00
2022-12-20T22:35:22.718Z,88557.00
2022-12-20T22:36:18.870Z,88564.00
2022-12-20T22:37:18.853Z,88555.00
2022-12-20T22:38:18.834Z,88566.00
2022-12-20T22:39:18.815Z,88564.00
2022-12-20T22:40:18.764Z,88557.00
2022-12-20T22:41:18.749Z,88560.00
2022-12-20T22:42:18.738Z,88555.00
2022-12-20T22:43:18.706Z,88557.00
2022-12-20T22:44:18.648Z,88557.00
2022-12-20T22:45:18.630Z,88553.00
2022-12-20T22:46:18.682Z,88558.00
2022-12-20T22:47:18.610Z,88551.00
2022-12-20T22:48:18.605Z,88553.00
2022-12-20T22:49:18.561Z,88560.00
2022-12-20T22:50:18.534Z,88553.00
2022-12-20T22:51:18.485Z,88543.00
2022-12-20T22:52:18.480Z,88549.00
2022-12-20T22:53:18.446Z,88547.00
2022-12-20T22:54:18.426Z,88547.00
2022-12-20T22:55:18.370Z,88551.00
2022-12-20T22:56:18.365Z,88549.00
2022-12-20T22:57:18.335Z,88553.00
2022-12-20T22:58:18.325Z,88549.00
2022-12-20T22:59:18.301Z,88553.00
2022-12-20T23:00:18.264Z,88535.00
2022-12-20T23:01:18.313Z,88551.00
2022-12-20T23:02:18.469Z,88553.00
2022-12-20T23:03:18.240Z,88551.00
2022-12-20T23:04:18.169Z,88547.00
2022-12-20T23:05:18.137Z,88558.00
2022-12-20T23:06:18.138Z,88557.00
2022-12-20T23:07:18.082Z,88558.00
2022-12-20T23:08:18.080Z,88557.00
2022-12-20T23:09:18.032Z,88555.00
2022-12-20T23:10:18.023Z,88547.00
2022-12-20T23:11:18.002Z,88551.00
2022-12-20T23:12:17.982Z,88557.00
2022-12-20T23:13:17.952Z,88545.00
2022-12-20T23:14:17.912Z,88551.00
2022-12-20T23:15:17.883Z,88553.00
2022-12-20T23:16:17.892Z,88545.00
2022-12-20T23:17:17.844Z,88543.00
2022-12-20T23:18:17.840Z,88547.00
2022-12-20T23:19:17.805Z,88543.00
2022-12-20T23:20:17.796Z,88543.00
2022-12-20T23:21:17.753Z,88535.00
2022-12-20T23:22:17.743Z,88535.00
2022-12-20T23:23:17.722Z,88545.00
2022-12-20T23:24:17.681Z,88537.00
2022-12-20T23:25:17.671Z,88537.00
2022-12-20T23:26:17.647Z,88545.00
2022-12-20T23:27:17.636Z,88535.00
2022-12-20T23:28:17.628Z,88537.00
2022-12-20T23:29:17.566Z,88535.00
2022-12-20T23:30:17.541Z,88533.00
2022-12-20T23:31:17.564Z,88527.00
2022-12-20T23:32:17.558Z,88527.00
2022-12-20T23:33:17.493Z,88521.00
2022-12-20T23:34:17.477Z,88525.00
2022-12-20T23:35:17.443Z,88521.00
2022-12-20T23:36:17.413Z,88513.00
2022-12-20T23:37:17.420Z,88521.00
